Time;durP1;ratioP1;P1;durP2;ratioP2;P2;SDS_P1;SDS_P2;PMS_P1;PMS_P2;Temp;Humidity;BMP_temperature;BMP_pressure;BME280_temperature;BME280_humidity;BME280_pressure;Samples;Min_cycle;Max_cycle;Signal;HPM_P1;HPM_P2
2023/02/19 00:01:28;;;;;;;;;;;17.20;63.40;;;;;;5043349;28;1929;-70
2023/02/19 00:03:54;;;;;;;;;;;17.30;63.40;;;;;;5070631;28;874;-70
2023/02/19 00:06:20;;;;;;;;;;;17.20;63.40;;;;;;5040992;28;1184;-70
2023/02/19 00:08:46;;;;;;;;;;;17.20;63.40;;;;;;5074329;28;864;-70
2023/02/19 00:11:12;;;;;;;;;;;17.20;63.50;;;;;;5039342;28;1342;-71
2023/02/19 00:13:38;;;;;;;;;;;17.20;63.40;;;;;;5044353;28;1285;-71
2023/02/19 00:16:14;;;;;;;;;;;17.20;63.40;;;;;;5076197;28;1960;-71
2023/02/19 00:18:39;;;;;;;;;;;17.20;63.40;;;;;;5071787;28;1363;-72
2023/02/19 00:21:05;;;;;;;;;;;17.20;63.50;;;;;;5043751;28;1288;-71
2023/02/19 00:23:30;;;;;;;;;;;17.20;63.50;;;;;;5074060;28;1225;-71
2023/02/19 00:25:56;;;;;;;;;;;17.20;63.50;;;;;;5073214;28;1172;-71
2023/02/19 00:28:21;;;;;;;;;;;17.20;63.50;;;;;;5073953;28;1276;-71
2023/02/19 00:30:47;;;;;;;;;;;17.20;63.50;;;;;;5040585;28;1299;-71
2023/02/19 00:33:12;;;;;;;;;;;17.20;63.50;;;;;;5072490;28;824;-71
2023/02/19 00:35:38;;;;;;;;;;;17.20;63.50;;;;;;5072683;28;875;-72
2023/02/19 00:38:03;;;;;;;;;;;17.20;63.50;;;;;;5040287;28;1898;-71
2023/02/19 00:40:29;;;;;;;;;;;17.20;63.50;;;;;;5041378;28;1251;-71
2023/02/19 00:42:54;;;;;;;;;;;17.20;63.50;;;;;;5071338;28;875;-72
2023/02/19 00:45:20;;;;;;;;;;;17.20;63.50;;;;;;5038980;28;879;-71
2023/02/19 00:47:45;;;;;;;;;;;17.20;63.50;;;;;;5043536;28;831;-71
2023/02/19 00:50:11;;;;;;;;;;;17.20;63.50;;;;;;5040392;28;1310;-71
2023/02/19 00:52:36;;;;;;;;;;;17.20;63.50;;;;;;5041748;28;887;-70
2023/02/19 00:55:01;;;;;;;;;;;17.20;63.60;;;;;;5037448;28;875;-70
2023/02/19 00:57:27;;;;;;;;;;;17.20;63.60;;;;;;5040115;28;1886;-70
2023/02/19 00:59:52;;;;;;;;;;;17.20;63.60;;;;;;5073694;28;1260;-70
2023/02/19 01:02:18;;;;;;;;;;;17.20;63.60;;;;;;5065057;28;1338;-70
2023/02/19 01:04:43;;;;;;;;;;;17.20;63.50;;;;;;5072859;28;1062;-70
2023/02/19 01:07:09;;;;;;;;;;;17.20;63.60;;;;;;5041134;28;820;-71
2023/02/19 01:09:34;;;;;;;;;;;17.20;63.60;;;;;;5042979;28;908;-70
2023/02/19 01:11:59;;;;;;;;;;;17.20;63.60;;;;;;5039887;28;1237;-70
2023/02/19 01:14:25;;;;;;;;;;;17.20;63.60;;;;;;5041087;28;1208;-70
2023/02/19 01:16:50;;;;;;;;;;;17.20;63.60;;;;;;5040324;28;1903;-70
2023/02/19 01:19:16;;;;;;;;;;;17.20;63.60;;;;;;5040314;28;991;-70
2023/02/19 01:21:41;;;;;;;;;;;17.20;63.60;;;;;;5040271;28;1379;-71
2023/02/19 01:24:07;;;;;;;;;;;17.20;64.40;;;;;;5038612;28;828;-71
2023/02/19 01:26:32;;;;;;;;;;;17.20;63.70;;;;;;5072164;28;880;-71
2023/02/19 01:28:58;;;;;;;;;;;17.20;64.40;;;;;;5071016;28;1420;-71
2023/02/19 01:31:24;;;;;;;;;;;17.20;63.60;;;;;;5039968;28;1342;-71
2023/02/19 01:33:53;;;;;;;;;;;17.20;63.60;;;;;;5041285;28;845;-71
2023/02/19 01:36:19;;;;;;;;;;;17.10;63.60;;;;;;5040376;28;1898;-71
2023/02/19 01:38:44;;;;;;;;;;;17.20;63.70;;;;;;5071250;28;1385;-71
2023/02/19 01:41:11;;;;;;;;;;;17.20;63.70;;;;;;5038037;28;1349;-71
2023/02/19 01:43:56;;;;;;;;;;;17.20;63.70;;;;;;5038047;28;887;-71
2023/02/19 01:46:23;;;;;;;;;;;17.20;63.70;;;;;;5039144;28;887;-71
2023/02/19 01:48:49;;;;;;;;;;;17.10;63.60;;;;;;5038180;28;1090;-71
2023/02/19 01:51:16;;;;;;;;;;;17.20;63.70;;;;;;5071784;28;1235;-71
2023/02/19 01:53:42;;;;;;;;;;;17.20;63.70;;;;;;5070974;28;1092;-71
2023/02/19 01:56:08;;;;;;;;;;;17.20;63.70;;;;;;5072403;28;1965;-71
2023/02/19 01:58:33;;;;;;;;;;;17.20;63.70;;;;;;5058035;28;1298;-70
2023/02/19 02:00:59;;;;;;;;;;;17.20;63.70;;;;;;5071148;28;1262;-71
2023/02/19 02:03:25;;;;;;;;;;;17.20;63.70;;;;;;5074635;28;927;-70
2023/02/19 02:05:55;;;;;;;;;;;17.20;63.70;;;;;;5044616;28;1178;-70
2023/02/19 02:11:04;;;;;;;;;;;17.20;63.70;;;;;;5065930;28;1366;-70
2023/02/19 02:13:31;;;;;;;;;;;17.10;63.70;;;;;;5069472;28;812;-71
2023/02/19 02:16:00;;;;;;;;;;;17.10;63.60;;;;;;5071872;28;852;-70
2023/02/19 02:18:40;;;;;;;;;;;17.10;63.70;;;;;;5041558;28;1997;-70
2023/02/19 02:21:30;;;;;;;;;;;17.10;63.70;;;;;;5072042;28;1239;-71
2023/02/19 02:24:01;;;;;;;;;;;17.10;63.70;;;;;;5071158;28;847;-70
2023/02/19 02:26:44;;;;;;;;;;;17.10;63.70;;;;;;5036795;28;912;-71
2023/02/19 02:29:10;;;;;;;;;;;17.10;63.70;;;;;;5054858;28;1322;-71
2023/02/19 02:31:38;;;;;;;;;;;17.20;63.80;;;;;;5036800;28;1335;-71
2023/02/19 02:34:23;;;;;;;;;;;17.10;63.70;;;;;;5039369;28;918;-70
2023/02/19 02:36:50;;;;;;;;;;;17.20;63.80;;;;;;5071215;28;1946;-70
2023/02/19 02:39:16;;;;;;;;;;;17.10;63.70;;;;;;5038642;28;1010;-71
2023/02/19 02:41:42;;;;;;;;;;;17.20;63.80;;;;;;5070722;28;1349;-71
2023/02/19 02:44:07;;;;;;;;;;;17.20;63.80;;;;;;5051940;28;1371;-71
2023/02/19 02:46:33;;;;;;;;;;;17.10;63.70;;;;;;5040111;28;864;-71
2023/02/19 02:49:03;;;;;;;;;;;17.10;63.70;;;;;;5068196;28;985;-71
2023/02/19 02:51:39;;;;;;;;;;;17.10;63.80;;;;;;5058350;28;1385;-71
2023/02/19 02:56:59;;;;;;;;;;;17.10;63.70;;;;;;5068776;28;1972;-71
2023/02/19 02:59:25;;;;;;;;;;;17.20;63.90;;;;;;5074654;28;951;-71
2023/02/19 03:02:17;;;;;;;;;;;17.10;63.80;;;;;;5041519;28;1245;-71
2023/02/19 03:07:38;;;;;;;;;;;17.10;63.80;;;;;;5034824;28;774;-71
2023/02/19 03:10:04;;;;;;;;;;;17.10;63.80;;;;;;5067605;28;1292;-71
2023/02/19 03:20:44;;;;;;;;;;;17.10;63.80;;;;;;5067326;28;1405;-70
2023/02/19 03:23:09;;;;;;;;;;;17.10;63.80;;;;;;5070423;28;863;-71
2023/02/19 03:29:21;;;;;;;;;;;17.10;63.80;;;;;;5066332;28;1334;-71
2023/02/19 03:31:05;;;;;;;;;;;17.10;63.80;;;;;;5064224;28;1250;-71
2023/02/19 03:33:31;;;;;;;;;;;17.10;63.90;;;;;;5068164;28;1354;-71
2023/02/19 03:35:57;;;;;;;;;;;17.10;63.80;;;;;;5068679;28;910;-71
2023/02/19 03:38:24;;;;;;;;;;;17.10;63.80;;;;;;5068798;28;1971;-70
2023/02/19 03:41:03;;;;;;;;;;;17.10;63.80;;;;;;5069424;28;1359;-71
2023/02/19 03:43:31;;;;;;;;;;;17.10;63.90;;;;;;5071010;28;1338;-71
2023/02/19 03:46:05;;;;;;;;;;;17.10;63.90;;;;;;5041666;28;1354;-73
2023/02/19 03:48:34;;;;;;;;;;;17.10;63.90;;;;;;5038713;28;1637;-71
2023/02/19 03:51:00;;;;;;;;;;;17.10;63.90;;;;;;5067963;28;1302;-70
2023/02/19 03:53:27;;;;;;;;;;;17.10;63.90;;;;;;5044049;28;1233;-71
2023/02/19 03:56:02;;;;;;;;;;;17.10;63.90;;;;;;5073908;28;1692;-72
2023/02/19 03:58:47;;;;;;;;;;;17.10;63.90;;;;;;5039725;28;1898;-71
2023/02/19 04:01:18;;;;;;;;;;;17.10;63.90;;;;;;5039684;28;1358;-71
2023/02/19 04:03:55;;;;;;;;;;;17.10;63.90;;;;;;5069710;28;1234;-71
2023/02/19 04:06:22;;;;;;;;;;;17.10;63.90;;;;;;5036930;28;1306;-72
2023/02/19 04:08:48;;;;;;;;;;;17.10;63.90;;;;;;5039957;28;1334;-70
2023/02/19 04:11:13;;;;;;;;;;;17.10;63.90;;;;;;5067042;28;1353;-70
2023/02/19 04:13:43;;;;;;;;;;;17.10;63.90;;;;;;5055505;28;1355;-72
2023/02/19 04:16:10;;;;;;;;;;;17.10;63.90;;;;;;5039375;28;1977;-73
2023/02/19 04:18:36;;;;;;;;;;;17.10;63.90;;;;;;5041829;28;1383;-70
2023/02/19 04:21:02;;;;;;;;;;;17.10;63.90;;;;;;5073134;28;1290;-69
2023/02/19 04:23:28;;;;;;;;;;;17.10;63.90;;;;;;5073743;28;1350;-69
2023/02/19 04:25:57;;;;;;;;;;;17.10;64.00;;;;;;5045329;28;1328;-70
2023/02/19 04:28:22;;;;;;;;;;;17.10;63.90;;;;;;5074553;28;1337;-70
2023/02/19 04:30:48;;;;;;;;;;;17.10;63.90;;;;;;5044318;28;1303;-69
2023/02/19 04:33:13;;;;;;;;;;;17.10;63.90;;;;;;5076595;28;1232;-72
2023/02/19 04:35:39;;;;;;;;;;;17.10;63.90;;;;;;5044146;28;1221;-70
2023/02/19 04:38:04;;;;;;;;;;;17.10;63.90;;;;;;5039149;28;1898;-71
2023/02/19 04:40:30;;;;;;;;;;;17.10;63.90;;;;;;5061274;28;1309;-70
2023/02/19 04:42:55;;;;;;;;;;;17.10;63.90;;;;;;5043400;28;868;-70
2023/02/19 04:45:21;;;;;;;;;;;17.10;64.00;;;;;;5037412;28;916;-70
2023/02/19 04:47:46;;;;;;;;;;;17.10;64.00;;;;;;5041743;28;910;-71
2023/02/19 04:50:12;;;;;;;;;;;17.10;63.90;;;;;;5039803;28;1331;-71
2023/02/19 04:52:38;;;;;;;;;;;17.10;64.00;;;;;;5043160;28;1276;-71
2023/02/19 04:55:03;;;;;;;;;;;17.10;64.00;;;;;;5043967;28;1469;-70
2023/02/19 04:57:29;;;;;;;;;;;17.10;64.00;;;;;;5042462;28;1959;-70
2023/02/19 04:59:54;;;;;;;;;;;17.10;64.00;;;;;;5075613;28;1391;-70
2023/02/19 05:02:20;;;;;;;;;;;17.10;64.00;;;;;;5039555;28;1276;-70
2023/02/19 05:04:45;;;;;;;;;;;17.10;64.00;;;;;;5040259;28;931;-70
2023/02/19 05:07:11;;;;;;;;;;;17.00;63.90;;;;;;5041220;28;979;-70
2023/02/19 05:09:37;;;;;;;;;;;17.10;63.90;;;;;;5037301;28;1114;-71
2023/02/19 05:12:03;;;;;;;;;;;17.10;63.90;;;;;;5039303;28;1390;-70
2023/02/19 05:14:28;;;;;;;;;;;17.10;63.90;;;;;;5043334;28;1022;-70
2023/02/19 05:16:54;;;;;;;;;;;17.10;63.80;;;;;;5041014;28;1910;-70
2023/02/19 05:19:19;;;;;;;;;;;17.20;63.70;;;;;;5044012;28;892;-70
2023/02/19 05:21:45;;;;;;;;;;;17.20;63.60;;;;;;5062113;28;1333;-70
2023/02/19 05:24:10;;;;;;;;;;;17.30;63.50;;;;;;5037684;28;855;-70
2023/02/19 05:26:36;;;;;;;;;;;17.30;63.40;;;;;;5072000;28;1118;-70
2023/02/19 05:29:01;;;;;;;;;;;17.30;63.20;;;;;;5053921;28;976;-70
2023/02/19 05:31:27;;;;;;;;;;;17.30;63.10;;;;;;5060926;28;1388;-71
2023/02/19 05:33:53;;;;;;;;;;;17.30;63.00;;;;;;5058725;28;1062;-71
2023/02/19 05:36:19;;;;;;;;;;;17.40;63.00;;;;;;5059312;28;1879;-71
2023/02/19 05:38:45;;;;;;;;;;;17.40;62.90;;;;;;5058342;28;1069;-71
2023/02/19 05:41:14;;;;;;;;;;;17.40;62.80;;;;;;5056163;28;1282;-71
2023/02/19 05:43:40;;;;;;;;;;;17.50;62.80;;;;;;5051869;28;906;-71
2023/02/19 05:46:06;;;;;;;;;;;17.50;62.70;;;;;;5080940;28;923;-71
2023/02/19 05:48:31;;;;;;;;;;;17.50;62.50;;;;;;5081010;28;1467;-72
2023/02/19 05:51:00;;;;;;;;;;;17.50;62.50;;;;;;5080936;28;1260;-71
2023/02/19 05:53:26;;;;;;;;;;;17.50;62.40;;;;;;5083476;28;1005;-71
2023/02/19 05:55:51;;;;;;;;;;;17.50;62.40;;;;;;5046209;28;857;-71
2023/02/19 05:58:17;;;;;;;;;;;17.50;62.30;;;;;;5045701;28;1906;-70
2023/02/19 06:00:42;;;;;;;;;;;17.60;62.30;;;;;;5043129;28;1348;-71
2023/02/19 06:03:08;;;;;;;;;;;17.60;62.30;;;;;;5040814;28;767;-70
2023/02/19 06:05:33;;;;;;;;;;;17.60;62.20;;;;;;5040113;28;799;-70
2023/02/19 06:07:59;;;;;;;;;;;17.60;62.20;;;;;;5041445;28;931;-70
2023/02/19 06:10:24;;;;;;;;;;;17.60;62.20;;;;;;5038171;28;1367;-70
2023/02/19 06:12:53;;;;;;;;;;;17.60;62.20;;;;;;5039274;28;1210;-70
2023/02/19 06:15:18;;;;;;;;;;;17.60;62.10;;;;;;5071989;28;870;-70
2023/02/19 06:17:43;;;;;;;;;;;17.60;62.10;;;;;;5037010;28;1906;-70
2023/02/19 06:20:09;;;;;;;;;;;17.60;62.10;;;;;;5038094;28;1391;-70
2023/02/19 06:22:35;;;;;;;;;;;17.60;62.20;;;;;;5041690;28;1182;-69
2023/02/19 06:25:00;;;;;;;;;;;17.60;62.10;;;;;;5039193;28;973;-69
2023/02/19 06:27:26;;;;;;;;;;;17.60;62.20;;;;;;5033638;28;1772;-71
2023/02/19 06:29:51;;;;;;;;;;;17.60;62.20;;;;;;5037897;28;1953;-69
2023/02/19 06:32:16;;;;;;;;;;;17.60;62.20;;;;;;5039429;28;1255;-69
2023/02/19 06:34:42;;;;;;;;;;;17.60;62.20;;;;;;5072970;28;1470;-69
2023/02/19 06:37:07;;;;;;;;;;;17.60;62.20;;;;;;5039613;28;1944;-71
2023/02/19 06:39:33;;;;;;;;;;;17.60;62.20;;;;;;5036911;28;1034;-72
2023/02/19 06:41:58;;;;;;;;;;;17.50;62.20;;;;;;5038352;28;1340;-71
2023/02/19 06:44:24;;;;;;;;;;;17.60;62.20;;;;;;5042014;28;904;-70
2023/02/19 06:46:49;;;;;;;;;;;17.60;62.30;;;;;;5039214;28;884;-72
2023/02/19 06:49:15;;;;;;;;;;;17.60;62.30;;;;;;5039485;28;1145;-72
2023/02/19 06:51:40;;;;;;;;;;;17.60;62.30;;;;;;5039278;28;1279;-71
2023/02/19 06:54:06;;;;;;;;;;;17.50;62.30;;;;;;5039759;28;879;-70
2023/02/19 06:56:32;;;;;;;;;;;17.60;62.30;;;;;;5038442;28;1906;-72
2023/02/19 06:58:58;;;;;;;;;;;17.50;62.30;;;;;;5071743;28;1011;-71
2023/02/19 07:01:24;;;;;;;;;;;17.50;62.30;;;;;;5069191;28;1365;-71
2023/02/19 07:03:51;;;;;;;;;;;17.50;62.30;;;;;;5039499;28;1151;-71
2023/02/19 07:06:17;;;;;;;;;;;17.50;62.30;;;;;;5036476;28;903;-71
2023/02/19 07:08:42;;;;;;;;;;;17.50;62.30;;;;;;5039572;28;895;-72
2023/02/19 07:11:07;;;;;;;;;;;17.50;62.40;;;;;;5039406;28;1252;-71
2023/02/19 07:13:33;;;;;;;;;;;17.50;62.40;;;;;;5068415;28;1747;-71
2023/02/19 07:15:59;;;;;;;;;;;17.50;62.40;;;;;;5073922;28;2280;-72
2023/02/19 07:18:24;;;;;;;;;;;17.50;62.40;;;;;;5058522;28;1897;-71
2023/02/19 07:20:50;;;;;;;;;;;17.50;63.20;;;;;;5068843;28;1281;-71
2023/02/19 07:23:15;;;;;;;;;;;17.50;62.50;;;;;;5040385;28;953;-71
2023/02/19 07:25:41;;;;;;;;;;;17.50;62.50;;;;;;5038687;28;1061;-70
2023/02/19 07:28:06;;;;;;;;;;;17.50;62.50;;;;;;5037089;28;1301;-71
2023/02/19 07:30:32;;;;;;;;;;;17.50;62.50;;;;;;5068788;28;1278;-71
2023/02/19 07:32:57;;;;;;;;;;;17.50;62.50;;;;;;5038917;28;867;-70
2023/02/19 07:35:23;;;;;;;;;;;17.50;62.60;;;;;;5037838;28;880;-70
2023/02/19 07:37:48;;;;;;;;;;;17.50;62.60;;;;;;5039264;28;1959;-70
2023/02/19 07:40:14;;;;;;;;;;;17.40;62.50;;;;;;5035044;28;1247;-70
2023/02/19 07:42:39;;;;;;;;;;;17.50;62.70;;;;;;5036798;28;1807;-71
2023/02/19 07:45:05;;;;;;;;;;;17.50;62.70;;;;;;5031711;28;863;-71
2023/02/19 07:47:30;;;;;;;;;;;17.50;62.70;;;;;;5039404;28;875;-70
2023/02/19 07:49:56;;;;;;;;;;;17.50;62.70;;;;;;5038516;28;1292;-70
2023/02/19 07:52:21;;;;;;;;;;;17.50;62.70;;;;;;5038932;28;1430;-69
2023/02/19 07:54:47;;;;;;;;;;;17.50;62.70;;;;;;5074825;28;895;-70
2023/02/19 07:57:13;;;;;;;;;;;17.50;62.70;;;;;;5042996;28;1905;-70
2023/02/19 07:59:38;;;;;;;;;;;17.50;62.80;;;;;;5043470;28;1055;-70
2023/02/19 08:04:51;;;;;;;;;;;17.40;62.70;;;;;;5069253;28;796;-71
2023/02/19 08:07:17;;;;;;;;;;;17.40;62.70;;;;;;5044695;28;919;-71
2023/02/19 08:09:42;;;;;;;;;;;17.40;62.70;;;;;;5040135;28;879;-71
2023/02/19 08:14:52;;;;;;;;;;;17.40;62.80;;;;;;5068222;28;1341;-71
2023/02/19 08:17:18;;;;;;;;;;;17.40;62.80;;;;;;5041375;28;1914;-71
2023/02/19 08:19:43;;;;;;;;;;;17.40;62.80;;;;;;5040992;28;873;-70
2023/02/19 08:22:09;;;;;;;;;;;17.40;62.90;;;;;;5040958;28;1339;-71
2023/02/19 08:24:36;;;;;;;;;;;17.40;62.80;;;;;;5042008;28;843;-71
2023/02/19 08:27:02;;;;;;;;;;;17.40;62.80;;;;;;5040396;28;940;-71
2023/02/19 08:29:27;;;;;;;;;;;17.40;62.90;;;;;;5039529;28;1302;-72
2023/02/19 08:31:53;;;;;;;;;;;17.40;62.90;;;;;;5039704;28;1353;-71
2023/02/19 08:34:18;;;;;;;;;;;17.40;62.90;;;;;;5039338;28;896;-71
2023/02/19 08:36:43;;;;;;;;;;;17.40;62.90;;;;;;5041753;28;1902;-71
2023/02/19 08:39:09;;;;;;;;;;;17.40;62.80;;;;;;5039626;28;868;-71
2023/02/19 08:41:34;;;;;;;;;;;17.40;62.80;;;;;;5039938;28;1242;-71
2023/02/19 08:44:00;;;;;;;;;;;17.40;62.80;;;;;;5039044;28;1481;-71
2023/02/19 08:46:25;;;;;;;;;;;17.40;62.70;;;;;;5038964;28;879;-72
2023/02/19 08:48:51;;;;;;;;;;;17.50;62.80;;;;;;5041446;28;1174;-71
2023/02/19 08:51:16;;;;;;;;;;;17.50;62.80;;;;;;5040569;28;1274;-70
2023/02/19 08:53:42;;;;;;;;;;;17.50;62.70;;;;;;5043803;28;793;-70
2023/02/19 08:56:08;;;;;;;;;;;17.50;62.60;;;;;;5071965;28;871;-71
2023/02/19 08:58:34;;;;;;;;;;;17.50;62.50;;;;;;5073534;28;1897;-71
2023/02/19 09:01:00;;;;;;;;;;;17.50;62.50;;;;;;5040522;28;1277;-71
2023/02/19 09:03:25;;;;;;;;;;;17.50;62.50;;;;;;5072363;28;892;-70
2023/02/19 09:05:51;;;;;;;;;;;17.50;62.40;;;;;;5042929;28;938;-71
2023/02/19 09:08:16;;;;;;;;;;;17.50;62.30;;;;;;5042056;28;1303;-71
2023/02/19 09:10:42;;;;;;;;;;;17.50;62.30;;;;;;5039299;28;1261;-70
2023/02/19 09:13:07;;;;;;;;;;;17.60;62.40;;;;;;5075023;28;816;-71
2023/02/19 09:15:33;;;;;;;;;;;17.50;62.20;;;;;;5043980;28;828;-71
2023/02/19 09:17:58;;;;;;;;;;;17.60;62.20;;;;;;5039317;28;1902;-71
2023/02/19 09:20:24;;;;;;;;;;;17.60;62.20;;;;;;5039948;28;1244;-71
2023/02/19 09:22:49;;;;;;;;;;;17.60;62.20;;;;;;5042149;28;954;-71
2023/02/19 09:25:15;;;;;;;;;;;17.60;62.10;;;;;;5073228;28;1023;-71
2023/02/19 09:27:40;;;;;;;;;;;17.60;62.10;;;;;;5071852;28;944;-71
2023/02/19 09:30:06;;;;;;;;;;;17.60;62.10;;;;;;5041615;28;1397;-71
2023/02/19 09:32:31;;;;;;;;;;;17.60;62.10;;;;;;5047589;28;1328;-71
2023/02/19 09:34:57;;;;;;;;;;;17.60;62.10;;;;;;5042285;28;1550;-73
2023/02/19 09:37:26;;;;;;;;;;;17.60;62.10;;;;;;5039682;28;1898;-73
2023/02/19 09:39:51;;;;;;;;;;;17.60;62.00;;;;;;5069406;28;939;-74
2023/02/19 09:42:17;;;;;;;;;;;17.70;62.10;;;;;;5076273;28;1258;-73
2023/02/19 09:44:44;;;;;;;;;;;17.60;62.00;;;;;;5075682;28;759;-73
2023/02/19 09:47:17;;;;;;;;;;;17.70;62.00;;;;;;5043573;28;828;-73
2023/02/19 09:49:49;;;;;;;;;;;17.60;62.00;;;;;;5077094;28;817;-71
2023/02/19 09:52:17;;;;;;;;;;;17.60;62.00;;;;;;5070199;28;1303;-72
2023/02/19 09:54:43;;;;;;;;;;;17.60;62.00;;;;;;5039671;28;918;-73
2023/02/19 09:57:24;;;;;;;;;;;17.70;62.10;;;;;;5075060;28;1902;-73
2023/02/19 09:59:50;;;;;;;;;;;17.70;62.10;;;;;;5041596;28;1205;-73
2023/02/19 10:02:17;;;;;;;;;;;17.70;62.10;;;;;;5075126;28;1325;-71
2023/02/19 10:04:43;;;;;;;;;;;17.70;62.10;;;;;;5036179;28;862;-72
2023/02/19 10:07:12;;;;;;;;;;;17.60;62.00;;;;;;5039866;28;879;-71
2023/02/19 10:09:37;;;;;;;;;;;17.60;62.10;;;;;;5037488;28;1090;-71
2023/02/19 10:12:03;;;;;;;;;;;17.60;62.10;;;;;;5037710;28;1417;-67
2023/02/19 10:14:31;;;;;;;;;;;17.60;62.10;;;;;;5066943;28;1783;-68
2023/02/19 10:16:57;;;;;;;;;;;17.60;62.10;;;;;;5067969;28;1969;-67
2023/02/19 10:19:22;;;;;;;;;;;17.60;62.10;;;;;;5036131;28;1435;-67
2023/02/19 10:21:48;;;;;;;;;;;17.60;62.20;;;;;;5036857;28;1271;-67
2023/02/19 10:24:20;;;;;;;;;;;17.60;62.20;;;;;;5069880;28;938;-67
2023/02/19 10:26:45;;;;;;;;;;;17.60;62.20;;;;;;5059292;28;1509;-68
2023/02/19 10:29:11;;;;;;;;;;;17.60;62.20;;;;;;5038288;28;1350;-68
2023/02/19 10:31:36;;;;;;;;;;;17.60;62.20;;;;;;5036714;28;1295;-68
2023/02/19 10:34:03;;;;;;;;;;;17.60;62.20;;;;;;5037851;28;923;-68
2023/02/19 10:36:29;;;;;;;;;;;17.70;62.20;;;;;;5039109;28;1961;-68
2023/02/19 10:38:54;;;;;;;;;;;17.60;62.10;;;;;;5070496;28;1535;-68
2023/02/19 10:41:21;;;;;;;;;;;17.70;62.10;;;;;;5070548;28;1371;-68
2023/02/19 10:43:51;;;;;;;;;;;17.60;62.00;;;;;;5068397;28;867;-68
2023/02/19 10:46:17;;;;;;;;;;;17.70;62.10;;;;;;5071183;28;926;-68
2023/02/19 10:48:49;;;;;;;;;;;17.70;62.10;;;;;;5072638;28;823;-68
2023/02/19 10:51:20;;;;;;;;;;;17.60;62.00;;;;;;5068631;28;1358;-68
2023/02/19 10:53:49;;;;;;;;;;;17.70;62.00;;;;;;5037492;28;887;-69
2023/02/19 10:56:15;;;;;;;;;;;17.70;62.00;;;;;;5070206;28;891;-69
2023/02/19 10:58:43;;;;;;;;;;;17.70;62.00;;;;;;5070013;28;1965;-71
2023/02/19 11:01:13;;;;;;;;;;;17.70;61.90;;;;;;5037017;28;1245;-70
2023/02/19 11:03:38;;;;;;;;;;;17.70;61.90;;;;;;5069130;28;881;-69
2023/02/19 11:06:07;;;;;;;;;;;17.70;61.90;;;;;;5037597;28;1256;-70
2023/02/19 11:08:35;;;;;;;;;;;17.70;61.80;;;;;;5070572;28;926;-70
2023/02/19 11:11:01;;;;;;;;;;;17.70;61.90;;;;;;5055651;28;1317;-70
2023/02/19 11:13:31;;;;;;;;;;;17.70;61.80;;;;;;5072099;28;808;-69
2023/02/19 11:15:56;;;;;;;;;;;17.70;61.80;;;;;;5071949;28;866;-69
2023/02/19 11:18:23;;;;;;;;;;;17.80;61.80;;;;;;5070575;28;2039;-71
2023/02/19 11:20:48;;;;;;;;;;;17.70;61.80;;;;;;5069484;28;1240;-71
2023/02/19 11:23:15;;;;;;;;;;;17.80;61.80;;;;;;5038784;28;1217;-71
2023/02/19 11:25:51;;;;;;;;;;;17.80;61.80;;;;;;5070479;28;864;-71
2023/02/19 11:28:33;;;;;;;;;;;17.70;61.70;;;;;;5076232;28;1402;-71
2023/02/19 11:31:11;;;;;;;;;;;17.70;61.70;;;;;;5040063;28;1291;-69
2023/02/19 11:33:41;;;;;;;;;;;17.80;61.70;;;;;;5038950;28;1100;-68
2023/02/19 11:36:27;;;;;;;;;;;17.70;61.60;;;;;;5044533;28;954;-68
2023/02/19 11:38:53;;;;;;;;;;;17.70;61.70;;;;;;5074952;28;1001;-68
2023/02/19 11:41:37;;;;;;;;;;;17.80;61.70;;;;;;5058079;28;1386;-68
2023/02/19 11:44:15;;;;;;;;;;;17.80;61.70;;;;;;5043943;28;802;-68
2023/02/19 11:46:44;;;;;;;;;;;17.80;61.60;;;;;;5043182;28;983;-68
2023/02/19 11:49:13;;;;;;;;;;;17.80;61.60;;;;;;5074598;28;948;-68
2023/02/19 11:51:44;;;;;;;;;;;17.80;61.60;;;;;;5040178;28;1355;-68
2023/02/19 11:54:10;;;;;;;;;;;17.80;61.60;;;;;;5075042;28;858;-68
2023/02/19 11:56:35;;;;;;;;;;;17.80;61.60;;;;;;5042169;28;1965;-68
2023/02/19 11:59:03;;;;;;;;;;;17.80;61.50;;;;;;5040941;28;1046;-68
2023/02/19 12:01:41;;;;;;;;;;;17.80;61.60;;;;;;5041442;28;1255;-68
2023/02/19 12:04:25;;;;;;;;;;;17.80;61.50;;;;;;5037697;28;975;-68
2023/02/19 12:07:17;;;;;;;;;;;17.80;61.50;;;;;;5033752;28;982;-68
2023/02/19 12:09:42;;;;;;;;;;;17.80;61.50;;;;;;5037347;28;1091;-68
2023/02/19 12:12:27;;;;;;;;;;;17.80;61.50;;;;;;5042278;28;1203;-68
2023/02/19 12:15:04;;;;;;;;;;;17.80;61.50;;;;;;5039535;28;804;-68
2023/02/19 12:17:42;;;;;;;;;;;17.80;61.60;;;;;;5059900;28;1909;-68
2023/02/19 12:20:13;;;;;;;;;;;17.80;61.60;;;;;;5038515;28;1326;-69
2023/02/19 12:22:51;;;;;;;;;;;17.80;61.60;;;;;;5072015;28;1724;-68
2023/02/19 12:25:37;;;;;;;;;;;17.80;61.60;;;;;;5071293;28;868;-68
2023/02/19 12:28:09;;;;;;;;;;;17.80;61.70;;;;;;5041025;28;1134;-67
2023/02/19 12:30:40;;;;;;;;;;;17.80;61.70;;;;;;5074948;28;1307;-68
2023/02/19 12:33:17;;;;;;;;;;;17.80;61.60;;;;;;5040548;28;800;-68
2023/02/19 12:36:01;;;;;;;;;;;17.80;61.60;;;;;;5068569;28;1268;-67
2023/02/19 12:38:34;;;;;;;;;;;17.80;61.60;;;;;;5039938;28;1909;-68
2023/02/19 12:41:02;;;;;;;;;;;17.80;61.60;;;;;;5040835;28;1221;-68
2023/02/19 12:43:28;;;;;;;;;;;17.80;61.50;;;;;;5041342;28;1264;-70
2023/02/19 12:46:07;;;;;;;;;;;17.80;61.50;;;;;;5040954;28;1722;-69
2023/02/19 12:48:38;;;;;;;;;;;17.80;61.40;;;;;;5072133;28;1925;-68
2023/02/19 12:51:05;;;;;;;;;;;17.90;61.50;;;;;;5041019;28;2090;-70
2023/02/19 12:53:37;;;;;;;;;;;17.90;61.50;;;;;;5041221;28;1430;-69
2023/02/19 12:56:03;;;;;;;;;;;17.90;61.40;;;;;;5076915;28;1295;-70
2023/02/19 12:58:48;;;;;;;;;;;17.90;61.40;;;;;;5073826;28;1971;-69
2023/02/19 13:01:18;;;;;;;;;;;17.90;61.30;;;;;;5075112;28;1249;-69
2023/02/19 13:03:49;;;;;;;;;;;17.90;61.30;;;;;;5070843;28;778;-69
2023/02/19 13:06:22;;;;;;;;;;;17.90;61.30;;;;;;5055096;28;1555;-69
2023/02/19 13:09:01;;;;;;;;;;;17.90;61.20;;;;;;5072121;28;1314;-70
2023/02/19 13:11:28;;;;;;;;;;;17.90;61.20;;;;;;5073085;28;1405;-69
2023/02/19 13:13:58;;;;;;;;;;;17.90;61.20;;;;;;5071282;28;1835;-71
2023/02/19 13:16:24;;;;;;;;;;;17.90;61.10;;;;;;5041712;28;1302;-71
2023/02/19 13:18:51;;;;;;;;;;;17.90;61.10;;;;;;5057700;28;1973;-69
2023/02/19 13:23:57;;;;;;;;;;;17.90;61.10;;;;;;5070742;28;1361;-69
2023/02/19 13:24:06;;;;;;;;;;;18.00;61.10;;;;;;5067821;28;1225;-69
2023/02/19 13:26:44;;;;;;;;;;;18.00;61.10;;;;;;5071178;28;828;-69
2023/02/19 13:29:15;;;;;;;;;;;18.00;61.10;;;;;;5041862;28;875;-69
2023/02/19 13:31:43;;;;;;;;;;;17.90;61.80;;;;;;5040168;28;1207;-69
2023/02/19 13:34:12;;;;;;;;;;;18.00;61.10;;;;;;5042939;28;1023;-69
2023/02/19 13:36:37;;;;;;;;;;;18.00;61.10;;;;;;5037048;28;1903;-69
2023/02/19 13:39:06;;;;;;;;;;;18.00;61.00;;;;;;5070469;28;923;-69
2023/02/19 13:41:31;;;;;;;;;;;18.00;61.00;;;;;;5070479;28;1354;-69
2023/02/19 13:43:58;;;;;;;;;;;18.00;61.10;;;;;;5038991;28;823;-69
2023/02/19 13:46:23;;;;;;;;;;;18.00;61.10;;;;;;5038746;28;769;-69
2023/02/19 13:48:49;;;;;;;;;;;17.90;61.10;;;;;;5069666;28;907;-69
2023/02/19 13:51:14;;;;;;;;;;;17.90;61.10;;;;;;5045910;28;1362;-70
2023/02/19 13:53:41;;;;;;;;;;;17.90;61.10;;;;;;5041505;28;1306;-69
2023/02/19 13:56:25;;;;;;;;;;;17.90;61.20;;;;;;5039300;28;835;-70
2023/02/19 13:58:51;;;;;;;;;;;17.90;61.20;;;;;;5037989;28;1898;-69
2023/02/19 14:01:17;;;;;;;;;;;17.90;61.20;;;;;;5038582;28;1369;-70
2023/02/19 14:04:05;;;;;;;;;;;17.90;61.30;;;;;;5040700;28;843;-69
2023/02/19 14:06:51;;;;;;;;;;;17.90;61.30;;;;;;5040722;28;1323;-68
2023/02/19 14:09:35;;;;;;;;;;;17.90;61.30;;;;;;5041275;28;2289;-69
2023/02/19 14:12:04;;;;;;;;;;;17.90;61.40;;;;;;5039359;28;1917;-68
2023/02/19 14:14:35;;;;;;;;;;;17.80;61.40;;;;;;5042065;28;1462;-68
2023/02/19 14:17:19;;;;;;;;;;;17.90;61.50;;;;;;5044638;28;2641;-69
2023/02/19 14:19:46;;;;;;;;;;;17.80;61.40;;;;;;5045898;28;2138;-68
2023/02/19 14:22:30;;;;;;;;;;;17.80;61.50;;;;;;5046498;28;2318;-70
2023/02/19 14:24:56;;;;;;;;;;;17.80;61.50;;;;;;5043663;28;2295;-70
2023/02/19 14:27:21;;;;;;;;;;;17.80;61.50;;;;;;5075987;28;874;-70
2023/02/19 14:29:47;;;;;;;;;;;17.80;61.60;;;;;;5039318;28;935;-70
2023/02/19 14:32:16;;;;;;;;;;;17.80;61.60;;;;;;5068236;28;1230;-70
2023/02/19 14:34:43;;;;;;;;;;;17.80;61.60;;;;;;5071836;28;867;-70
2023/02/19 14:37:12;;;;;;;;;;;17.80;61.70;;;;;;5038088;28;1906;-69
2023/02/19 14:39:39;;;;;;;;;;;17.70;61.60;;;;;;5068786;28;845;-69
2023/02/19 14:42:05;;;;;;;;;;;17.80;61.70;;;;;;5069233;28;1260;-69
2023/02/19 14:44:35;;;;;;;;;;;17.80;61.70;;;;;;5071183;28;1197;-69
2023/02/19 14:47:08;;;;;;;;;;;17.80;61.80;;;;;;5069185;28;965;-69
2023/02/19 14:49:33;;;;;;;;;;;17.70;61.70;;;;;;5073436;28;906;-69
2023/02/19 14:52:00;;;;;;;;;;;17.70;61.80;;;;;;5039756;28;1245;-69
2023/02/19 14:54:36;;;;;;;;;;;17.70;61.80;;;;;;5070266;28;1084;-69
2023/02/19 14:57:02;;;;;;;;;;;17.70;61.80;;;;;;5069454;28;1969;-69
2023/02/19 14:59:28;;;;;;;;;;;17.70;61.80;;;;;;5067858;28;989;-68
2023/02/19 15:01:54;;;;;;;;;;;17.70;61.90;;;;;;5061987;28;1376;-68
2023/02/19 15:04:20;;;;;;;;;;;17.70;61.90;;;;;;5036184;28;815;-69